Time;durP1;ratioP1;P1;durP2;ratioP2;P2;SDS_P1;SDS_P2;PMS_P1;PMS_P2;Temp;Humidity;BMP_temperature;BMP_pressure;BME280_temperature;BME280_humidity;BME280_pressure;Samples;Min_cycle;Max_cycle;Signal;HPM_P1;HPM_P2
2022/06/13 00:01:51;;;;;;;5.17;2.20;;;17.10;1.00;;;17.29;58.03;101114.47;5024273;28;20483;-74
2022/06/13 00:04:20;;;;;;;5.70;2.03;;;17.10;1.00;;;17.27;57.90;101108.41;5031096;28;20934;-74
2022/06/13 00:06:49;;;;;;;4.40;2.37;;;17.10;1.00;;;17.19;58.10;101100.56;5033721;28;20440;-75
2022/06/13 00:09:18;;;;;;;4.13;1.87;;;17.10;1.00;;;17.23;57.89;101109.97;5029932;28;20758;-73
2022/06/13 00:11:47;;;;;;;6.13;2.10;;;17.00;1.00;;;17.13;58.36;101107.84;5033410;28;20872;-74
2022/06/13 00:14:15;;;;;;;7.07;2.20;;;17.00;1.00;;;17.15;58.31;101110.34;5032583;28;20855;-74
2022/06/13 00:16:44;;;;;;;4.13;2.13;;;16.90;1.00;;;17.09;58.60;101098.44;5028672;28;20443;-74
2022/06/13 00:19:14;;;;;;;3.47;1.80;;;17.00;1.00;;;17.00;58.95;101107.25;5032323;28;20942;-76
2022/06/13 00:21:43;;;;;;;3.17;2.30;;;16.90;1.00;;;16.98;59.05;101095.75;5032986;28;20979;-74
2022/06/13 00:24:12;;;;;;;8.90;2.37;;;16.90;1.00;;;17.00;59.10;101093.59;5032254;28;20476;-75
2022/06/13 00:26:41;;;;;;;3.67;1.70;;;16.80;1.00;;;16.95;59.20;101089.66;5026404;28;20495;-74
2022/06/13 00:29:10;;;;;;;2.67;1.77;;;16.80;1.00;;;16.90;59.35;101100.50;5031430;28;20443;-75
2022/06/13 00:31:38;;;;;;;6.33;1.90;;;16.80;1.00;;;16.90;59.01;101095.03;5029022;28;20555;-74
2022/06/13 00:34:07;;;;;;;3.63;1.83;;;16.70;1.00;;;16.87;59.31;101098.25;5034134;28;20487;-74
2022/06/13 00:36:37;;;;;;;2.23;1.50;;;16.70;1.00;;;16.81;59.25;101088.25;5032503;28;20494;-75
2022/06/13 00:39:06;;;;;;;2.80;1.50;;;16.70;1.00;;;16.87;58.93;101089.22;5037386;28;20451;-75
2022/06/13 00:41:40;;;;;;;6.30;2.20;;;16.70;1.00;;;16.73;58.92;101085.91;5031950;28;20442;-75
2022/06/13 00:44:19;;;;;;;4.07;1.50;;;16.60;1.00;;;16.71;59.06;101079.00;5031361;28;20490;-74
2022/06/13 00:46:49;;;;;;;5.47;2.47;;;16.50;1.00;;;16.68;59.01;101083.03;5006627;28;21017;-74
2022/06/13 00:49:31;;;;;;;7.10;2.10;;;16.60;1.00;;;16.73;58.75;101079.59;5027338;28;20934;-74
2022/06/13 00:52:10;;;;;;;4.40;1.70;;;16.50;1.00;;;16.62;59.38;101089.44;5027061;28;20495;-76
2022/06/13 00:54:42;;;;;;;3.13;2.10;;;16.50;1.00;;;16.52;59.91;101098.19;5027278;28;20501;-76
2022/06/13 00:57:19;;;;;;;4.80;2.20;;;16.40;1.00;;;16.52;59.94;101100.09;5031122;28;20447;-74
2022/06/13 00:59:52;;;;;;;5.03;3.03;;;16.40;1.00;;;16.52;60.15;101098.19;5028187;28;20507;-74
2022/06/13 01:02:21;;;;;;;3.63;1.93;;;16.40;1.00;;;16.46;60.41;101096.41;5011112;28;20479;-76
2022/06/13 01:04:53;;;;;;;5.20;2.63;;;16.30;1.00;;;16.38;60.75;101095.94;5018094;28;20443;-74
2022/06/13 01:07:24;;;;;;;6.80;1.80;;;16.30;1.00;;;16.48;60.25;101099.75;5027496;28;21030;-75
2022/06/13 01:12:40;;;;;;;5.93;2.20;;;16.30;1.00;;;16.36;60.71;101095.34;5024197;28;20455;-75
2022/06/13 01:15:35;;;;;;;5.43;2.23;;;16.20;1.00;;;16.32;60.85;101100.44;5025828;28;20525;-75
2022/06/13 01:18:32;;;;;;;4.03;2.70;;;16.20;1.00;;;16.28;61.31;101092.94;5028844;28;20564;-74
2022/06/13 01:21:20;;;;;;;4.60;3.30;;;16.20;1.00;;;16.21;61.60;101090.34;5027627;28;20438;-75
2022/06/13 01:24:51;;;;;;;4.70;3.00;;;16.10;1.00;;;16.21;61.60;101087.59;5031924;28;20424;-74
2022/06/13 01:28:07;;;;;;;20.90;13.27;;;16.10;1.00;;;16.23;61.82;101095.53;5023461;28;20935;-75
2022/06/13 01:31:00;;;;;;;30.57;19.73;;;16.10;1.00;;;16.16;62.19;101087.47;5010781;28;20821;-74
2022/06/13 01:33:39;;;;;;;42.07;25.57;;;16.10;1.00;;;16.16;62.20;101087.47;5034050;28;20440;-74
2022/06/13 01:36:34;;;;;;;30.43;14.57;;;16.10;1.00;;;16.08;62.62;101094.09;5038987;28;20434;-74
2022/06/13 01:39:27;;;;;;;10.13;7.03;;;16.00;1.00;;;16.06;62.63;101090.78;5027486;28;20447;-74
2022/06/13 01:42:14;;;;;;;6.87;4.83;;;16.00;1.00;;;16.08;62.79;101083.16;5025393;28;20797;-74
2022/06/13 01:45:08;;;;;;;9.27;3.23;;;16.00;1.00;;;16.05;62.91;101078.19;5025973;28;20459;-75
2022/06/13 01:47:52;;;;;;;5.60;2.50;;;15.90;1.00;;;16.01;63.16;101098.00;5027275;28;20447;-75
2022/06/13 01:50:31;;;;;;;10.03;2.57;;;15.90;1.00;;;15.88;63.89;101088.09;5028606;28;20458;-75
2022/06/13 01:53:10;;;;;;;2.43;2.00;;;15.80;1.00;;;15.89;64.09;101089.75;5027294;28;20431;-75
2022/06/13 01:55:46;;;;;;;4.13;2.73;;;15.80;1.00;;;15.86;64.13;101084.78;5026023;28;20824;-74
2022/06/13 01:58:24;;;;;;;5.37;2.43;;;15.80;1.00;;;15.81;64.64;101087.38;5025963;28;20821;-74
2022/06/13 02:01:03;;;;;;;7.17;2.53;;;15.70;1.00;;;15.68;65.07;101087.56;5018852;28;20449;-75
2022/06/13 02:03:40;;;;;;;4.33;2.33;;;15.60;1.00;;;15.71;65.30;101081.63;5031753;28;20922;-74
2022/06/13 02:06:17;;;;;;;3.50;2.40;;;15.60;1.00;;;15.63;65.52;101084.69;5028473;28;20422;-75
2022/06/13 02:08:54;;;;;;;5.67;2.40;;;15.50;1.00;;;15.62;65.82;101097.50;5028469;28;20540;-76
2022/06/13 02:11:32;;;;;;;8.23;2.07;;;15.50;1.00;;;15.51;66.38;101081.91;5018731;28;20479;-75
2022/06/13 02:14:09;;;;;;;3.90;1.93;;;15.40;1.00;;;15.54;66.05;101094.25;5018030;28;20426;-74
2022/06/13 02:16:48;;;;;;;4.00;2.43;;;15.40;1.00;;;15.54;66.04;101091.53;5028236;28;20424;-75
2022/06/13 02:19:26;;;;;;;2.03;1.83;;;15.40;1.00;;;15.59;66.02;101099.84;5022895;28;20449;-75
2022/06/13 02:22:01;;;;;;;7.33;2.73;;;15.40;1.00;;;15.48;66.62;101104.16;5035940;28;20451;-75
2022/06/13 02:24:46;;;;;;;3.03;1.80;;;15.40;1.00;;;15.50;66.43;101109.38;5040245;28;20427;-77
2022/06/13 02:27:20;;;;;;;7.17;2.47;;;15.40;1.00;;;15.60;66.33;101115.97;5004283;28;20429;-75
2022/06/13 02:29:56;;;;;;;5.90;2.43;;;15.50;1.00;;;15.55;66.12;101126.75;5030013;28;20727;-73
2022/06/13 02:32:32;;;;;;;2.90;2.63;;;15.40;1.00;;;15.58;66.39;101126.31;5030052;28;20920;-74
2022/06/13 02:35:12;;;;;;;2.33;2.13;;;15.40;1.00;;;15.62;66.43;101113.03;5016055;28;20927;-75
2022/06/13 02:37:51;;;;;;;4.17;2.77;;;15.50;1.00;;;15.69;66.03;101104.75;5026445;28;20448;-75
2022/06/13 02:40:26;;;;;;;3.50;1.97;;;15.50;1.00;;;15.72;65.70;101110.59;5023794;28;20461;-75
2022/06/13 02:43:03;;;;;;;3.87;2.47;;;15.50;1.00;;;15.73;65.77;101114.16;5024986;28;20425;-76
2022/06/13 02:45:42;;;;;;;3.03;1.90;;;15.50;1.00;;;15.64;66.07;101109.00;5023436;28;20463;-75
2022/06/13 02:48:19;;;;;;;5.97;2.03;;;15.50;1.00;;;15.58;66.20;101109.09;5030028;28;20482;-74
2022/06/13 02:50:58;;;;;;;5.03;2.67;;;15.50;1.00;;;15.55;66.48;101109.53;5025036;28;20471;-74
2022/06/13 02:53:35;;;;;;;4.73;2.00;;;15.40;1.00;;;15.56;66.76;101113.94;5014168;28;20515;-74
2022/06/13 02:56:26;;;;;;;6.13;2.70;;;15.50;1.00;;;15.43;67.12;101108.63;5028679;28;20432;-75
2022/06/13 02:59:12;;;;;;;4.03;2.20;;;15.40;1.00;;;15.37;67.36;101121.28;5016369;28;20426;-75
2022/06/13 03:01:47;;;;;;;3.70;1.87;;;15.30;1.00;;;15.35;67.86;101125.28;5020068;28;21013;-74
2022/06/13 03:04:32;;;;;;;5.83;2.87;;;15.30;1.00;;;15.40;67.56;101119.97;5030181;28;20501;-74
2022/06/13 03:07:14;;;;;;;8.50;3.10;;;15.30;1.00;;;15.34;67.76;101121.75;5016937;28;20432;-74
2022/06/13 03:09:52;;;;;;;3.17;2.77;;;15.20;1.00;;;15.35;67.24;101109.75;5021835;28;20445;-74
2022/06/13 03:12:32;;;;;;;5.23;3.40;;;15.30;1.00;;;15.35;67.50;101115.22;5010854;28;20488;-75
2022/06/13 03:15:07;;;;;;;6.30;3.00;;;15.30;1.00;;;15.42;66.74;101115.13;5027008;28;20806;-75
2022/06/13 03:17:46;;;;;;;6.37;3.37;;;15.30;1.00;;;15.31;67.01;101121.34;5024991;28;20922;-74
2022/06/13 03:20:20;;;;;;;6.17;2.60;;;15.20;1.00;;;15.32;66.34;101120.28;5019446;28;20439;-74
2022/06/13 03:23:00;;;;;;;6.03;2.60;;;15.20;1.00;;;15.35;66.19;101125.28;5026401;28;20411;-74
2022/06/13 03:25:36;;;;;;;5.53;3.57;;;15.20;1.00;;;15.36;66.13;101127.78;5014800;28;20417;-75
2022/06/13 03:28:12;;;;;;;3.73;2.30;;;15.20;1.00;;;15.42;65.75;101126.88;5022879;28;20523;-75
2022/06/13 03:30:48;;;;;;;6.23;2.43;;;15.30;1.00;;;15.44;65.54;101121.22;5025830;28;20834;-76
2022/06/13 03:33:42;;;;;;;4.87;2.53;;;15.30;1.00;;;15.34;65.93;101118.19;5026430;28;20442;-75
2022/06/13 03:36:19;;;;;;;4.57;2.30;;;15.20;1.00;;;15.40;65.86;101128.16;5018205;28;20472;-74
2022/06/13 03:38:58;;;;;;;4.67;2.83;;;15.20;1.00;;;15.26;65.85;101124.75;5024240;28;20538;-75
2022/06/13 03:41:35;;;;;;;4.57;2.47;;;15.20;1.00;;;15.24;65.92;101124.16;5023683;28;20452;-75
2022/06/13 03:44:12;;;;;;;5.50;2.60;;;15.10;1.00;;;15.36;65.55;101125.06;5022010;28;20448;-76
2022/06/13 03:46:49;;;;;;;3.57;3.20;;;15.10;1.00;;;15.28;65.66;101125.38;5023854;28;20501;-74
2022/06/13 03:49:26;;;;;;;3.63;2.90;;;15.10;1.00;;;15.36;65.25;101133.25;5026067;28;20438;-76
2022/06/13 03:52:01;;;;;;;3.13;2.23;;;15.20;1.00;;;15.92;63.85;101143.91;5029628;28;20483;-74
2022/06/13 03:54:40;;;;;;;4.70;2.40;;;15.40;1.00;;;16.69;61.00;101144.00;5032408;28;21023;-74
2022/06/13 03:57:17;;;;;;;9.00;4.00;;;15.80;1.00;;;16.42;61.67;101138.94;5030067;28;20455;-76
2022/06/13 03:59:54;;;;;;;4.03;3.50;;;15.90;1.00;;;17.01;59.58;101137.09;5015006;28;20428;-75
2022/06/13 04:02:29;;;;;;;4.70;2.60;;;16.20;1.00;;;17.03;59.33;101148.63;5019203;28;20442;-75
2022/06/13 04:04:58;;;;;;;5.40;3.30;;;16.40;1.00;;;17.12;58.83;101149.94;5016325;28;20835;-75
2022/06/13 04:07:32;;;;;;;5.97;2.80;;;16.40;1.00;;;17.36;57.95;101151.56;5029949;28;20951;-75
2022/06/13 04:10:07;;;;;;;8.30;3.03;;;16.60;1.00;;;17.36;57.47;101145.25;5018101;28;20437;-75
2022/06/13 04:13:06;;;;;;;8.63;3.77;;;16.70;1.00;;;18.71;53.74;101144.59;5030944;28;20507;-74
2022/06/13 04:16:14;;;;;;;9.73;2.80;;;17.40;1.00;;;19.08;52.67;101143.78;5022552;28;20408;-74
2022/06/13 04:19:09;;;;;;;7.27;2.90;;;17.70;11.60;;;18.99;52.11;101141.72;5013204;28;20460;-75
2022/06/13 04:21:48;;;;;;;6.10;2.70;;;18.10;94.80;;;19.09;51.72;101139.13;5031458;28;20498;-74
2022/06/13 04:24:28;;;;;;;4.93;2.70;;;18.20;99.90;;;19.16;51.00;101139.78;5035192;28;20495;-74
2022/06/13 04:27:09;;;;;;;3.13;2.17;;;18.40;99.90;;;20.06;49.24;101133.78;5032618;28;20467;-75
2022/06/13 04:29:44;;;;;;;5.77;2.30;;;18.70;99.90;;;19.59;50.12;101132.69;5035542;28;20502;-73
2022/06/13 04:32:26;;;;;;;6.43;2.53;;;18.70;99.90;;;20.02;49.39;101135.41;5030908;28;20477;-74
2022/06/13 04:34:58;;;;;;;3.60;2.00;;;18.70;9.10;;;21.04;47.18;101137.94;5039242;28;20506;-75
2022/06/13 04:37:28;;;;;;;3.43;2.33;;;19.20;61.60;;;20.76;47.78;101136.38;5031608;28;20407;-76
2022/06/13 04:40:04;;;;;;;9.70;3.30;;;19.40;90.20;;;19.43;49.79;101131.63;5018812;28;20441;-74
2022/06/13 04:42:39;;;;;;;4.37;2.40;;;19.00;99.90;;;18.32;52.30;101144.44;5029350;28;20490;-75
2022/06/13 04:45:21;;;;;;;4.93;3.00;;;18.20;49.60;;;18.64;52.19;101142.81;5035130;28;20437;-75
2022/06/13 04:47:54;;;;;;;4.20;2.90;;;17.90;1.00;;;19.71;49.58;101145.19;5033290;28;20447;-75
2022/06/13 04:50:32;;;;;;;5.70;2.10;;;18.20;65.80;;;19.28;49.77;101140.50;5034895;28;20472;-76
2022/06/13 04:53:04;;;;;;;4.30;2.57;;;18.40;90.50;;;19.46;49.34;101145.72;5034512;28;20499;-74
2022/06/13 04:55:42;;;;;;;4.47;2.47;;;18.50;99.90;;;19.46;49.07;101150.41;5031078;28;20808;-75
2022/06/13 04:58:27;;;;;;;7.17;2.40;;;18.50;99.90;;;20.20;47.09;101142.44;5028110;28;20423;-74
2022/06/13 05:01:03;;;;;;;5.23;3.13;;;19.00;99.90;;;19.12;48.97;101160.59;5023360;28;20750;-74
2022/06/13 05:03:41;;;;;;;2.80;2.20;;;18.60;99.90;;;20.93;45.61;101160.97;5026369;28;20913;-74
2022/06/13 05:06:30;;;;;;;4.30;2.30;;;19.10;99.90;;;20.27;46.83;101159.56;5021329;28;20496;-73
2022/06/13 05:09:03;;;;;;;6.70;2.80;;;19.00;99.90;;;19.51;48.21;101154.00;5024220;28;20433;-76
2022/06/13 05:11:40;;;;;;;8.47;3.00;;;18.70;99.90;;;18.81;49.69;101155.72;5020673;28;20489;-74
2022/06/13 05:14:17;;;;;;;6.40;2.93;;;18.40;99.90;;;18.95;49.91;101154.28;5021374;28;20426;-74
2022/06/13 05:17:09;;;;;;;5.87;2.90;;;18.10;99.90;;;19.56;48.05;101160.69;5023384;28;20448;-74
2022/06/13 05:19:59;;;;;;;7.50;2.90;;;18.50;99.90;;;19.57;48.07;101178.78;5019397;28;20415;-74
2022/06/13 05:23:03;;;;;;;6.23;3.30;;;18.60;99.90;;;20.04;47.30;101176.34;5009771;28;20475;-74
2022/06/13 05:25:43;;;;;;;9.13;3.83;;;18.70;99.90;;;20.52;46.08;101175.50;5011072;28;20487;-75
2022/06/13 05:28:16;;;;;;;4.07;2.10;;;19.00;99.90;;;20.62;45.58;101162.63;5026460;28;20426;-74
2022/06/13 05:30:51;;;;;;;5.10;2.90;;;19.40;99.90;;;20.61;45.52;101173.91;5025395;28;20790;-73
2022/06/13 05:33:25;;;;;;;5.90;3.20;;;19.40;1.00;;;19.63;47.09;101175.84;5025597;28;20444;-75
2022/06/13 05:35:57;;;;;;;5.70;3.23;;;19.10;99.90;;;18.67;48.95;101180.72;5028865;28;20410;-74
2022/06/13 05:38:36;;;;;;;5.80;3.60;;;18.40;1.00;;;18.03;50.36;101178.41;5028122;28;20462;-75
2022/06/13 05:41:05;;;;;;;4.67;2.67;;;17.90;99.90;;;17.56;51.31;101181.28;5008064;28;20444;-76
2022/06/13 05:43:34;;;;;;;4.97;3.07;;;17.50;99.90;;;17.47;51.42;101174.53;5007990;28;20433;-75
2022/06/13 05:46:05;;;;;;;2.80;1.77;;;17.30;92.00;;;17.57;51.33;101180.19;5026065;28;20976;-75
2022/06/13 05:48:35;;;;;;;4.20;2.10;;;17.20;99.90;;;17.93;50.44;101183.69;5023084;28;20873;-75
2022/06/13 05:51:04;;;;;;;7.37;2.70;;;17.50;1.00;;;17.58;51.03;101181.84;5015680;28;20473;-76
2022/06/13 05:53:33;;;;;;;4.37;2.40;;;17.40;99.90;;;17.70;51.18;101192.81;5010622;28;20976;-75
2022/06/13 05:56:03;;;;;;;4.73;3.03;;;17.40;1.00;;;17.38;50.43;101197.81;5015602;28;20420;-75
2022/06/13 05:58:32;;;;;;;6.83;2.00;;;17.30;99.90;;;16.57;52.29;101203.22;4998050;28;20421;-74
2022/06/13 06:01:03;;;;;;;3.50;2.10;;;16.70;1.00;;;16.82;51.32;101188.31;5022123;28;20489;-74
2022/06/13 06:03:33;;;;;;;6.57;2.33;;;16.60;99.90;;;16.60;51.38;101206.34;5015722;28;20919;-76
2022/06/13 06:06:03;;;;;;;6.87;2.50;;;16.50;99.90;;;16.57;51.64;101201.31;5012132;28;20469;-75
2022/06/13 06:08:36;;;;;;;3.00;1.90;;;16.40;1.00;;;16.67;51.79;101196.13;5014401;28;20857;-75
2022/06/13 06:11:05;;;;;;;4.67;2.47;;;16.40;23.20;;;17.07;51.02;101196.31;5013042;28;20493;-76
2022/06/13 06:13:34;;;;;;;3.53;1.67;;;16.70;1.00;;;17.21;49.66;101196.91;5012988;28;20451;-72
2022/06/13 06:16:06;;;;;;;3.40;1.43;;;16.90;1.00;;;16.87;50.66;101191.19;5020283;28;20494;-74
2022/06/13 06:18:35;;;;;;;2.77;1.53;;;16.70;99.90;;;16.72;50.34;101198.16;5030383;28;20471;-75
2022/06/13 06:21:04;;;;;;;7.27;2.10;;;16.60;99.90;;;16.70;50.43;101201.13;5028792;28;20442;-75
2022/06/13 06:23:33;;;;;;;3.40;1.70;;;16.50;99.90;;;16.55;49.66;101198.00;5028103;28;20422;-74
2022/06/13 06:26:04;;;;;;;7.43;1.37;;;16.40;1.00;;;16.53;49.44;101198.22;5025529;28;20455;-74
2022/06/13 06:28:35;;;;;;;8.83;1.30;;;16.30;99.90;;;16.24;48.38;101200.97;5032930;28;20423;-75
2022/06/13 06:31:05;;;;;;;2.77;1.50;;;16.20;1.00;;;16.02;49.48;101209.66;5049892;22;20532;-70
2022/06/13 06:33:35;;;;;;;5.83;1.80;;;16.00;1.00;;;15.89;50.03;101209.00;5036869;28;20434;-71
2022/06/13 06:36:05;;;;;;;2.67;1.27;;;15.80;1.00;;;15.98;49.60;101203.00;5051227;28;20495;-71
2022/06/13 06:38:34;;;;;;;3.80;2.10;;;15.90;99.90;;;16.03;50.13;101197.69;5047624;28;20447;-69
2022/06/13 06:41:03;;;;;;;2.90;1.33;;;15.80;1.00;;;15.95;49.48;101198.00;5026205;28;20452;-70
2022/06/13 06:43:32;;;;;;;3.83;1.80;;;15.80;1.00;;;16.14;49.75;101192.50;5047386;22;20557;-71
2022/06/13 06:46:02;;;;;;;2.33;1.53;;;15.90;20.50;;;16.36;49.38;101202.66;5021806;28;20460;-71
2022/06/13 06:48:33;;;;;;;6.63;1.83;;;16.00;1.00;;;16.10;49.70;101205.78;5030402;28;20992;-72
2022/06/13 06:51:05;;;;;;;6.50;2.13;;;16.00;1.00;;;16.24;50.00;101201.81;5030678;28;20462;-72
2022/06/13 07:01:52;;;;;;;3.20;1.40;;;16.20;99.90;;;16.70;48.97;101179.25;5030686;28;20454;-73
2022/06/13 07:04:23;;;;;;;2.73;1.30;;;16.40;1.00;;;16.72;49.39;101181.78;5034906;28;20450;-72
2022/06/13 07:06:52;;;;;;;2.13;1.40;;;16.50;1.00;;;16.68;48.70;101192.34;5031972;28;20443;-71
2022/06/13 07:09:21;;;;;;;3.77;1.37;;;16.50;99.90;;;16.54;49.21;101190.88;5033908;28;20448;-72
2022/06/13 07:11:56;;;;;;;4.60;1.90;;;16.40;99.90;;;17.11;47.23;101178.34;5031622;28;20989;-71
2022/06/13 07:14:28;;;;;;;3.83;1.80;;;16.70;1.00;;;17.57;46.52;101188.38;5038123;28;20953;-71
2022/06/13 07:17:00;;;;;;;7.13;1.77;;;17.10;1.00;;;17.30;46.88;101181.78;5035970;28;20444;-71
2022/06/13 07:19:32;;;;;;;5.10;1.67;;;17.00;1.00;;;17.41;45.43;101182.84;5030918;28;20509;-72
2022/06/13 07:22:02;;;;;;;3.70;1.53;;;17.10;1.00;;;17.42;45.98;101185.34;5034579;28;20442;-72
2022/06/13 07:24:32;;;;;;;1.90;1.40;;;17.20;1.00;;;17.74;44.63;101191.25;5030164;28;20509;-73
2022/06/13 07:27:02;;;;;;;6.47;1.40;;;17.40;1.00;;;18.20;44.35;101203.97;5031735;28;20514;-71
2022/06/13 07:29:32;;;;;;;2.37;1.30;;;17.70;99.90;;;17.95;44.37;101197.97;5035716;28;20824;-72
2022/06/13 07:32:08;;;;;;;5.63;1.70;;;17.80;1.00;;;17.88;44.60;101194.53;5037171;28;20761;-72
2022/06/13 07:34:41;;;;;;;3.50;1.63;;;17.70;99.90;;;17.62;45.80;101199.47;5012470;28;20902;-72
2022/06/13 07:37:14;;;;;;;4.60;0.90;;;17.50;99.90;;;17.54;44.05;101197.09;5031671;28;20486;-72
2022/06/13 07:39:43;;;;;;;7.90;1.23;;;17.40;1.00;;;17.09;44.81;101198.81;5013692;28;20527;-73
2022/06/13 07:42:18;;;;;;;3.33;1.50;;;17.10;99.90;;;17.24;45.12;101196.41;5029158;28;20485;-72
2022/06/13 07:44:47;;;;;;;6.20;2.00;;;17.10;99.90;;;17.36;44.66;101205.44;5038430;28;20451;-72
2022/06/13 07:47:21;;;;;;;2.90;1.00;;;17.10;99.90;;;17.23;44.22;101200.22;5045866;28;20762;-73
2022/06/13 07:49:52;;;;;;;2.07;1.03;;;17.10;99.90;;;17.06;44.77;101204.72;5040829;28;20413;-73
2022/06/13 07:52:21;;;;;;;4.50;1.60;;;16.90;1.00;;;17.04;44.96;101204.97;5034520;28;20946;-73
2022/06/13 07:54:50;;;;;;;2.87;1.10;;;16.90;99.90;;;17.35;44.92;101198.31;5031042;28;20532;-73
2022/06/13 07:57:20;;;;;;;2.50;1.33;;;17.00;99.90;;;17.25;45.79;101203.53;5037784;28;20752;-72
2022/06/13 07:59:52;;;;;;;5.43;1.77;;;17.00;99.90;;;17.78;45.65;101201.47;5035393;28;20448;-73
2022/06/13 08:02:21;;;;;;;3.70;1.40;;;17.40;99.90;;;18.00;45.56;101198.09;5018667;28;20451;-72
2022/06/13 08:04:53;;;;;;;1.93;1.27;;;17.60;1.00;;;18.37;44.98;101199.34;5023698;28;20816;-73
2022/06/13 08:07:28;;;;;;;2.63;1.43;;;18.00;13.80;;;17.98;45.36;101195.56;5022709;28;20624;-72
2022/06/13 08:09:57;;;;;;;3.03;1.30;;;17.80;1.00;;;18.07;45.36;101204.22;5047366;28;20490;-72
2022/06/13 08:12:28;;;;;;;4.17;1.83;;;17.80;1.00;;;17.68;45.42;101200.41;5019518;28;20450;-72
2022/06/13 08:14:57;;;;;;;2.60;1.50;;;17.60;1.00;;;17.80;45.66;101202.06;5032772;28;20457;-73
2022/06/13 08:17:27;;;;;;;5.87;2.00;;;17.60;99.90;;;18.07;45.07;101207.81;5035199;28;20419;-72
2022/06/13 08:19:57;;;;;;;3.50;2.20;;;17.80;1.00;;;18.47;44.81;101210.47;5036581;28;20442;-73
2022/06/13 08:22:27;;;;;;;2.03;1.40;;;18.10;93.20;;;18.58;44.24;101206.06;5032653;28;20560;-72
2022/06/13 08:24:56;;;;;;;3.17;1.57;;;18.20;1.00;;;18.59;44.19;101214.00;5032629;28;20496;-71
2022/06/13 08:27:26;;;;;;;2.80;1.53;;;18.40;99.90;;;18.98;43.94;101219.59;5041667;28;20443;-72
2022/06/13 08:29:56;;;;;;;6.23;1.93;;;18.60;99.90;;;18.94;43.96;101213.78;5029210;28;20776;-74
2022/06/13 08:32:25;;;;;;;3.20;1.70;;;18.70;99.90;;;18.98;43.54;101203.97;5033801;28;20463;-72
2022/06/13 08:34:56;;;;;;;2.90;1.17;;;18.80;1.00;;;18.33;43.76;101195.44;5037588;28;20521;-72
2022/06/13 08:37:25;;;;;;;4.83;1.60;;;18.50;99.90;;;18.35;42.75;101197.94;5033978;28;20446;-72
2022/06/13 08:39:55;;;;;;;4.63;1.60;;;18.40;1.00;;;19.00;42.06;101200.97;5036794;28;20930;-71
2022/06/13 08:42:32;;;;;;;3.40;1.47;;;18.60;1.00;;;18.91;42.28;101211.56;5032083;28;20497;-71
2022/06/13 08:45:08;;;;;;;2.17;1.60;;;18.70;99.90;;;18.58;41.59;101215.09;5038161;28;20421;-72
2022/06/13 08:47:46;;;;;;;5.20;2.23;;;18.50;99.90;;;18.67;41.77;101213.63;5016850;28;20425;-71
2022/06/13 08:50:37;;;;;;;4.83;1.60;;;18.50;99.90;;;19.10;41.33;101201.16;5035075;28;20980;-73
2022/06/13 08:53:19;;;;;;;2.63;1.47;;;18.80;99.90;;;19.06;41.56;101211.78;5036995;28;20859;-72
2022/06/13 08:55:53;;;;;;;5.53;1.77;;;18.90;99.90;;;19.07;42.26;101215.38;5033360;28;20428;-72
2022/06/13 08:58:30;;;;;;;4.00;2.00;;;18.90;1.00;;;18.94;41.65;101224.75;5053057;28;20516;-74
2022/06/13 09:01:05;;;;;;;5.37;2.00;;;18.80;99.90;;;18.45;43.00;101209.88;5050601;28;20479;-73
2022/06/13 09:03:44;;;;;;;4.90;1.63;;;18.40;1.00;;;18.71;42.26;101213.13;5051060;28;20439;-73
2022/06/13 09:06:25;;;;;;;2.83;2.10;;;18.50;1.00;;;19.03;41.66;101227.91;5052271;28;20390;-72
2022/06/13 09:09:03;;;;;;;3.30;1.30;;;18.70;99.90;;;18.50;41.73;101217.38;5057295;28;20459;-73
2022/06/13 09:11:39;;;;;;;2.17;1.27;;;18.60;1.00;;;18.52;42.21;101213.31;5063176;28;20454;-72
2022/06/13 09:14:17;;;;;;;5.70;1.70;;;18.40;1.00;;;18.31;42.90;101224.97;5051533;28;20440;-73
2022/06/13 09:16:55;;;;;;;3.03;1.87;;;18.30;99.90;;;18.67;42.88;101230.06;5043655;28;20443;-72
2022/06/13 09:19:34;;;;;;;4.87;1.90;;;18.50;99.90;;;18.95;42.31;101220.94;5050010;28;20538;-72
2022/06/13 09:22:15;;;;;;;6.03;1.90;;;18.50;1.00;;;18.50;43.61;101220.94;5044610;28;20973;-71
2022/06/13 09:24:55;;;;;;;4.33;2.80;;;18.40;1.00;;;18.86;43.90;101216.13;5039750;28;20537;-71
2022/06/13 09:27:30;;;;;;;2.60;1.53;;;18.40;99.90;;;18.98;43.62;101216.84;5036521;28;20409;-72
2022/06/13 09:30:10;;;;;;;2.50;1.57;;;18.60;99.90;;;18.95;44.39;101225.59;5049289;28;20892;-72
2022/06/13 09:32:48;;;;;;;6.60;2.50;;;18.80;99.90;;;18.98;44.53;101223.16;5043671;28;20441;-71
2022/06/13 09:35:22;;;;;;;4.10;1.80;;;18.70;1.00;;;19.58;43.47;101213.38;5041186;28;20830;-71
2022/06/13 09:38:09;;;;;;;6.03;2.33;;;19.10;99.90;;;19.22;43.18;101204.59;5040176;28;20450;-72
2022/06/13 09:40:52;;;;;;;5.13;2.13;;;19.00;99.90;;;19.96;41.93;101200.44;5033976;28;20507;-73
2022/06/13 09:43:40;;;;;;;2.23;1.70;;;19.50;99.90;;;20.10;40.29;101194.53;5031451;28;20482;-72
2022/06/13 09:46:20;;;;;;;3.07;1.37;;;19.90;99.90;;;20.11;40.82;101197.03;5029354;28;20908;-71
2022/06/13 09:49:11;;;;;;;5.00;1.70;;;19.90;1.00;;;19.71;40.54;101194.63;5042226;28;20406;-72
2022/06/13 09:51:58;;;;;;;5.10;1.70;;;19.70;99.90;;;19.81;41.20;101199.41;5036767;28;20437;-71
2022/06/13 09:54:42;;;;;;;4.97;2.60;;;19.60;99.90;;;20.25;40.67;101206.53;5035217;28;20960;-72
2022/06/13 09:57:25;;;;;;;4.23;1.87;;;19.90;1.00;;;20.15;40.43;101198.16;5035276;28;20430;-72
2022/06/13 10:00:14;;;;;;;2.83;1.57;;;19.90;99.90;;;20.50;39.49;101196.91;5033720;28;20432;-73
2022/06/13 10:02:57;;;;;;;3.60;2.63;;;20.20;1.00;;;19.90;40.62;101184.13;5035245;28;20431;-71
2022/06/13 10:05:40;;;;;;;3.50;1.50;;;19.80;99.90;;;19.71;40.23;101185.53;5035725;28;20458;-72
2022/06/13 10:08:40;;;;;;;2.73;1.70;;;19.80;1.00;;;19.84;40.28;101186.00;5023720;28;20431;-72
2022/06/13 10:11:33;;;;;;;5.83;1.77;;;19.70;1.00;;;19.96;39.13;101191.34;5031475;28;21023;-72
2022/06/13 10:14:28;;;;;;;7.17;1.57;;;19.70;1.00;;;20.05;39.41;101184.31;5047467;28;20492;-72
2022/06/13 10:17:15;;;;;;;2.10;1.40;;;19.80;1.00;;;20.67;38.39;101197.63;5036335;28;20421;-72
2022/06/13 10:20:03;;;;;;;4.50;1.80;;;20.30;1.00;;;20.12;38.76;101173.97;5037722;28;20467;-72
2022/06/13 10:22:44;;;;;;;2.67;1.63;;;20.10;1.00;;;19.49;40.43;101182.81;5021349;28;20521;-72
2022/06/13 10:25:35;;;;;;;3.17;1.27;;;19.50;1.00;;;20.09;39.72;101166.22;5039638;28;20895;-72
2022/06/13 10:28:30;;;;;;;3.40;2.20;;;19.70;1.00;;;20.84;39.32;101170.81;5037763;28;20984;-73
2022/06/13 10:31:15;;;;;;;4.20;1.87;;;20.20;1.00;;;21.06;38.32;101160.50;5035734;28;20669;-72
2022/06/13 10:34:02;;;;;;;4.90;2.57;;;20.70;99.90;;;21.25;37.58;101170.00;5034681;28;20444;-72
2022/06/13 10:36:40;;;;;;;4.30;1.53;;;21.00;99.90;;;21.55;36.67;101177.59;5041470;28;20469;-72
2022/06/13 10:39:13;;;;;;;5.20;1.50;;;21.20;1.00;;;20.16;38.62;101169.59;5029896;28;20453;-71
2022/06/13 10:41:47;;;;;;;4.20;1.60;;;20.40;1.00;;;20.08;39.47;101186.56;5044118;28;20429;-71
2022/06/13 10:44:20;;;;;;;3.63;1.90;;;20.10;1.00;;;19.81;39.64;101166.44;5031535;28;20727;-73
2022/06/13 10:46:55;;;;;;;4.43;1.90;;;19.70;1.00;;;19.98;39.37;101172.72;5033130;28;20418;-73
2022/06/13 10:49:32;;;;;;;3.30;1.90;;;19.70;99.90;;;20.34;37.72;101166.50;5035853;28;20512;-73
2022/06/13 10:52:14;;;;;;;4.03;1.53;;;20.00;99.90;;;20.66;37.41;101172.03;5036084;28;20467;-73
2022/06/13 10:54:49;;;;;;;4.10;1.60;;;20.30;99.90;;;20.59;36.53;101165.91;5027573;28;20460;-71
2022/06/13 10:57:26;;;;;;;2.60;1.63;;;20.40;1.00;;;20.35;37.59;101159.94;5020541;28;20460;-72
2022/06/13 11:00:21;;;;;;;3.13;1.20;;;20.20;99.90;;;20.06;37.75;101161.25;5040423;28;20476;-72
2022/06/13 11:02:52;;;;;;;2.73;1.90;;;20.00;1.00;;;19.92;38.09;101165.50;5027922;28;20484;-72
2022/06/13 11:05:25;;;;;;;2.10;1.20;;;19.80;99.90;;;19.95;37.70;101175.94;5016096;28;20475;-72
2022/06/13 11:07:58;;;;;;;3.57;1.50;;;19.80;25.40;;;20.15;36.27;101159.69;5029421;28;20446;-72
2022/06/13 11:10:36;;;;;;;3.50;1.20;;;19.90;99.90;;;20.54;36.46;101156.78;5036062;28;20407;-73